createdAt,value
2019-04-26T00:00:32.569Z,960.70
2019-04-26T00:01:32.542Z,960.71
2019-04-26T00:02:32.519Z,960.61
2019-04-26T00:03:32.506Z,960.63
2019-04-26T00:04:32.478Z,960.68
2019-04-26T00:05:35.522Z,960.69
2019-04-26T00:06:32.437Z,960.66
2019-04-26T00:07:32.414Z,960.75
2019-04-26T00:08:32.390Z,960.77
2019-04-26T00:09:32.379Z,960.79
2019-04-26T00:10:32.351Z,960.80
2019-04-26T00:11:32.331Z,960.79
2019-04-26T00:12:32.310Z,960.80
2019-04-26T00:13:32.293Z,960.77
2019-04-26T00:14:32.271Z,960.74
2019-04-26T00:15:32.249Z,960.77
2019-04-26T00:16:32.230Z,960.68
2019-04-26T00:17:32.209Z,960.68
2019-04-26T00:18:32.186Z,960.66
2019-04-26T00:19:32.161Z,960.58
2019-04-26T00:20:32.156Z,960.56
2019-04-26T00:21:32.123Z,960.58
2019-04-26T00:22:32.102Z,960.54
2019-04-26T00:23:32.079Z,960.64
2019-04-26T00:24:32.058Z,960.57
2019-04-26T00:25:32.035Z,960.70
2019-04-26T00:26:32.028Z,960.70
2019-04-26T00:27:31.991Z,960.73
2019-04-26T00:28:31.972Z,960.72
2019-04-26T00:29:31.953Z,960.80
2019-04-26T00:30:31.937Z,960.85
2019-04-26T00:31:31.905Z,960.87
2019-04-26T00:32:31.898Z,960.84
2019-04-26T00:33:31.866Z,960.87
2019-04-26T00:34:31.843Z,960.97
2019-04-26T00:35:31.822Z,961.01
2019-04-26T00:36:31.796Z,960.97
2019-04-26T00:37:31.777Z,960.96
2019-04-26T00:38:31.757Z,960.94
2019-04-26T00:39:31.739Z,960.95
2019-04-26T00:40:31.711Z,960.97
2019-04-26T00:41:31.688Z,960.99
2019-04-26T00:42:31.669Z,961.00
2019-04-26T00:43:31.653Z,960.99
2019-04-26T00:44:31.633Z,960.95
2019-04-26T00:45:31.606Z,960.97
2019-04-26T00:46:31.581Z,960.88
2019-04-26T00:47:31.565Z,960.92
2019-04-26T00:48:31.537Z,960.93
2019-04-26T00:49:42.939Z,960.94
2019-04-26T00:50:31.506Z,960.99
2019-04-26T00:51:31.473Z,960.99
2019-04-26T00:52:31.501Z,961.06
2019-04-26T00:53:31.429Z,961.07
2019-04-26T00:54:31.393Z,961.12
2019-04-26T00:55:40.099Z,961.12
2019-04-26T00:57:27.487Z,961.13
2019-04-26T00:58:27.280Z,961.12
2019-04-26T00:59:27.229Z,961.10
2019-04-26T01:00:27.725Z,961.15
2019-04-26T01:01:27.172Z,961.13
2019-04-26T01:02:27.166Z,961.10
2019-04-26T01:03:27.150Z,961.11
2019-04-26T01:04:27.114Z,961.14
2019-04-26T01:05:27.126Z,961.16
2019-04-26T01:06:27.082Z,961.20
2019-04-26T01:07:27.037Z,961.14
2019-04-26T01:08:27.018Z,961.14
2019-04-26T01:09:26.991Z,961.11
2019-04-26T01:10:26.987Z,961.17
2019-04-26T01:11:26.958Z,961.13
2019-04-26T01:12:26.955Z,961.12
2019-04-26T01:13:26.908Z,961.08
2019-04-26T01:14:26.885Z,961.02
2019-04-26T01:15:26.872Z,961.10
2019-04-26T01:16:26.841Z,961.12
2019-04-26T01:17:26.872Z,961.06
2019-04-26T01:18:26.809Z,961.13
2019-04-26T01:19:26.808Z,961.16
2019-04-26T01:20:26.812Z,961.17
2019-04-26T01:21:26.934Z,961.17
2019-04-26T01:22:27.623Z,961.20
2019-04-26T01:23:27.288Z,961.20
2019-04-26T01:24:27.295Z,961.23
2019-04-26T01:25:27.421Z,961.19
2019-04-26T01:26:27.412Z,961.17
2019-04-26T01:27:27.652Z,961.17
2019-04-26T01:28:26.592Z,961.19
2019-04-26T01:29:26.559Z,961.21
2019-04-26T01:30:26.568Z,961.24
2019-04-26T01:31:26.542Z,961.25
2019-04-26T01:32:26.496Z,961.28
2019-04-26T01:33:26.466Z,961.31
2019-04-26T01:36:12.901Z,961.29
2019-04-26T01:37:05.528Z,961.29
2019-04-26T01:39:09.465Z,961.27
2019-04-26T01:40:09.397Z,961.26
2019-04-26T01:42:05.359Z,961.28
2019-04-26T01:43:05.328Z,961.25
2019-04-26T01:45:15.683Z,961.30
2019-04-26T01:46:15.205Z,961.29
2019-04-26T01:48:09.569Z,961.28
2019-04-26T01:49:09.545Z,961.29
2019-04-26T01:50:09.519Z,961.26
2019-04-26T01:51:09.495Z,961.26
2019-04-26T01:52:09.486Z,961.27
2019-04-26T01:53:09.455Z,961.27
2019-04-26T01:54:09.432Z,961.28
2019-04-26T01:55:09.409Z,961.28
2019-04-26T01:56:09.389Z,961.27
2019-04-26T01:57:09.360Z,961.34
2019-04-26T01:58:09.344Z,961.35
2019-04-26T01:59:09.328Z,961.32
2019-04-26T02:00:09.296Z,961.36
2019-04-26T02:01:09.277Z,961.40
2019-04-26T02:02:09.251Z,961.36
2019-04-26T02:03:09.231Z,961.42
2019-04-26T02:04:09.211Z,961.43
2019-04-26T02:05:09.205Z,961.51
2019-04-26T02:06:09.162Z,961.54
2019-04-26T02:07:09.142Z,961.57
2019-04-26T02:08:09.122Z,961.55
2019-04-26T02:09:09.098Z,961.47
2019-04-26T02:10:09.107Z,961.45
2019-04-26T02:11:09.066Z,961.41
2019-04-26T02:12:09.075Z,961.40
2019-04-26T02:13:09.020Z,961.37
2019-04-26T02:14:08.999Z,961.42
2019-04-26T02:15:08.971Z,961.41
2019-04-26T02:16:08.950Z,961.45
2019-04-26T02:17:08.927Z,961.34
2019-04-26T02:18:08.901Z,961.30
2019-04-26T02:19:08.885Z,961.19
2019-04-26T02:20:08.859Z,961.21
2019-04-26T02:21:08.840Z,961.26
2019-04-26T02:22:08.812Z,961.31
2019-04-26T02:23:08.795Z,961.30
2019-04-26T02:24:08.772Z,961.28
2019-04-26T02:25:08.747Z,961.28
2019-04-26T02:26:08.724Z,961.24
2019-04-26T02:27:08.705Z,961.20
2019-04-26T02:28:08.677Z,961.22
2019-04-26T02:29:08.659Z,961.26
2019-04-26T02:30:08.644Z,961.35
2019-04-26T02:31:08.613Z,961.36
2019-04-26T02:32:08.596Z,961.43
2019-04-26T02:33:08.569Z,961.46
2019-04-26T02:34:08.548Z,961.49
2019-04-26T02:35:08.531Z,961.55
2019-04-26T02:36:08.500Z,961.62
2019-04-26T02:37:08.482Z,961.65
2019-04-26T02:38:08.454Z,961.65
2019-04-26T02:39:08.434Z,961.60
2019-04-26T02:40:08.410Z,961.64
2019-04-26T02:41:08.392Z,961.62
2019-04-26T02:42:08.370Z,961.59
2019-04-26T02:43:08.345Z,961.60
2019-04-26T02:44:08.325Z,961.63
2019-04-26T02:45:08.309Z,961.67
2019-04-26T02:46:08.282Z,961.70
2019-04-26T02:47:08.269Z,961.75
2019-04-26T02:48:08.232Z,961.73
2019-04-26T02:49:08.212Z,961.70
2019-04-26T02:50:08.191Z,961.79
2019-04-26T02:51:08.165Z,961.80
2019-04-26T02:52:08.142Z,961.81
2019-04-26T02:53:08.125Z,961.83
2019-04-26T02:54:08.097Z,961.85
2019-04-26T02:55:08.076Z,961.88
2019-04-26T02:56:08.063Z,961.89
2019-04-26T02:57:08.036Z,961.89
2019-04-26T02:58:08.007Z,961.87
2019-04-26T02:59:07.987Z,961.85
2019-04-26T03:00:07.961Z,961.83
2019-04-26T03:01:07.956Z,961.86
2019-04-26T03:02:07.920Z,961.88
2019-04-26T03:03:07.905Z,961.86
2019-04-26T03:04:07.875Z,961.84
2019-04-26T03:05:07.849Z,961.82
2019-04-26T03:06:07.834Z,961.85
2019-04-26T03:07:07.805Z,961.84
2019-04-26T03:08:07.789Z,961.81
2019-04-26T03:09:07.760Z,961.76
2019-04-26T03:10:07.740Z,961.75
2019-04-26T03:11:07.723Z,961.79
2019-04-26T03:12:07.691Z,961.78
2019-04-26T03:13:07.674Z,961.80
2019-04-26T03:14:07.647Z,961.73
2019-04-26T03:15:13.893Z,961.75
2019-04-26T03:16:07.603Z,961.76
2019-04-26T03:17:07.590Z,961.85
2019-04-26T03:18:07.556Z,961.86
2019-04-26T03:19:07.535Z,961.93
2019-04-26T03:20:07.535Z,961.94
2019-04-26T03:21:07.500Z,961.92
2019-04-26T03:22:07.474Z,961.91
2019-04-26T03:23:07.441Z,961.96
2019-04-26T03:24:07.425Z,961.98
2019-04-26T03:25:07.395Z,962.01
2019-04-26T03:26:07.376Z,961.99
2019-04-26T03:27:07.351Z,961.99
2019-04-26T03:28:07.325Z,961.89
2019-04-26T03:29:07.304Z,961.81
2019-04-26T03:30:19.906Z,961.74
2019-04-26T03:31:07.263Z,961.62
2019-04-26T03:32:07.264Z,961.56
2019-04-26T03:33:07.311Z,961.55
2019-04-26T03:34:07.526Z,961.60
2019-04-26T03:35:07.169Z,961.63
2019-04-26T03:36:07.171Z,961.75
2019-04-26T03:37:20.408Z,961.83
2019-04-26T03:38:07.099Z,961.89
2019-04-26T03:39:07.066Z,961.94
2019-04-26T03:40:07.042Z,961.91
2019-04-26T03:41:07.032Z,961.95
2019-04-26T03:42:14.187Z,961.93
2019-04-26T03:44:00.360Z,961.96
2019-04-26T03:44:59.857Z,962.03
2019-04-26T03:46:52.750Z,962.15
2019-04-26T03:47:52.727Z,962.23
2019-04-26T03:48:52.684Z,962.33
2019-04-26T03:49:54.581Z,962.38
2019-04-26T03:50:52.633Z,962.44
2019-04-26T03:51:52.616Z,962.45
2019-04-26T03:52:52.594Z,962.46
2019-04-26T03:53:52.569Z,962.48
2019-04-26T03:54:52.546Z,962.49
2019-04-26T03:55:52.525Z,962.47
2019-04-26T03:56:52.510Z,962.48
2019-04-26T03:57:52.475Z,962.40
2019-04-26T03:58:52.452Z,962.34
2019-04-26T03:59:52.428Z,962.27
2019-04-26T04:00:52.413Z,962.22
2019-04-26T04:01:52.387Z,962.11
2019-04-26T04:02:52.363Z,962.01
2019-04-26T04:03:52.337Z,961.90
2019-04-26T04:04:52.307Z,961.91
2019-04-26T04:05:52.293Z,961.88
2019-04-26T04:07:03.059Z,961.87
2019-04-26T04:07:52.247Z,961.89
2019-04-26T04:08:52.220Z,961.91
2019-04-26T04:09:52.211Z,961.95
2019-04-26T04:10:52.171Z,961.94
2019-04-26T04:12:09.689Z,961.93
2019-04-26T04:12:52.131Z,961.96
2019-04-26T04:13:52.277Z,961.95
2019-04-26T04:14:52.093Z,961.92
2019-04-26T04:15:52.055Z,961.91
2019-04-26T04:16:52.145Z,961.96
2019-04-26T04:17:52.012Z,962.04
2019-04-26T04:18:53.994Z,962.11
2019-04-26T04:19:51.966Z,962.20
2019-04-26T04:20:51.942Z,962.18
2019-04-26T04:21:51.924Z,962.24
2019-04-26T04:22:51.894Z,962.21
2019-04-26T04:23:51.874Z,962.32
2019-04-26T04:24:51.856Z,962.32
2019-04-26T04:25:51.830Z,962.36
2019-04-26T04:26:51.803Z,962.37
2019-04-26T04:27:51.780Z,962.35
2019-04-26T04:28:51.758Z,962.35
2019-04-26T04:29:55.273Z,962.32
2019-04-26T04:30:51.709Z,962.30
2019-04-26T04:31:51.686Z,962.27
2019-04-26T04:32:52.149Z,962.30
2019-04-26T04:33:52.663Z,962.25
2019-04-26T04:34:52.791Z,962.28
2019-04-26T04:35:52.844Z,962.31
2019-04-26T04:36:53.511Z,962.32
2019-04-26T04:38:05.867Z,962.33
2019-04-26T04:38:51.521Z,962.36
2019-04-26T04:39:53.293Z,962.25
2019-04-26T04:40:51.487Z,962.22
2019-04-26T04:41:51.458Z,962.20
2019-04-26T04:42:52.437Z,962.20
2019-04-26T04:43:53.052Z,962.11
2019-04-26T04:44:52.005Z,962.12
2019-04-26T04:45:52.780Z,962.12
2019-04-26T04:46:52.434Z,962.09
2019-04-26T04:47:52.652Z,962.06
2019-04-26T04:48:52.635Z,962.02
2019-04-26T04:49:52.608Z,962.04
2019-04-26T04:50:52.569Z,962.06
2019-04-26T04:51:51.618Z,962.05
2019-04-26T04:52:52.156Z,962.00
2019-04-26T04:53:51.680Z,961.99
2019-04-26T04:55:06.450Z,961.96
2019-04-26T04:55:52.076Z,962.00
2019-04-26T04:56:51.933Z,962.05
2019-04-26T04:57:52.275Z,962.06
2019-04-26T04:58:52.337Z,962.09
2019-04-26T04:59:51.038Z,962.13
2019-04-26T05:00:51.394Z,962.19
2019-04-26T05:01:50.994Z,962.20
2019-04-26T05:02:50.992Z,962.32
2019-04-26T05:03:51.072Z,962.30
2019-04-26T05:04:51.183Z,962.37
2019-04-26T05:05:51.116Z,962.36
2019-04-26T05:06:51.206Z,962.44
2019-04-26T05:07:51.480Z,962.50
2019-04-26T05:08:51.522Z,962.52
2019-04-26T05:09:51.609Z,962.54
2019-04-26T05:10:51.915Z,962.47
2019-04-26T05:11:51.878Z,962.47
2019-04-26T05:12:50.758Z,962.42
2019-04-26T05:13:50.728Z,962.34
2019-04-26T05:14:50.701Z,962.38
2019-04-26T05:15:50.724Z,962.43
2019-04-26T05:16:50.680Z,962.42
2019-04-26T05:17:51.541Z,962.44
2019-04-26T05:18:50.626Z,962.48
2019-04-26T05:19:50.682Z,962.52
2019-04-26T05:20:51.272Z,962.49
2019-04-26T05:21:50.920Z,962.49
2019-04-26T05:22:51.198Z,962.52
2019-04-26T05:23:51.071Z,962.49
2019-04-26T05:24:51.241Z,962.38
2019-04-26T05:25:51.379Z,962.38
2019-04-26T05:26:51.461Z,962.37
2019-04-26T05:27:50.894Z,962.36
2019-04-26T05:28:50.388Z,962.37
2019-04-26T05:29:50.382Z,962.33
2019-04-26T05:30:50.343Z,962.35
2019-04-26T05:31:51.528Z,962.37
2019-04-26T05:32:50.641Z,962.35
2019-04-26T05:33:50.393Z,962.39
2019-04-26T05:34:50.710Z,962.35
2019-04-26T05:35:51.104Z,962.33
2019-04-26T05:36:50.572Z,962.31
2019-04-26T05:37:51.034Z,962.35
2019-04-26T05:38:51.151Z,962.37
2019-04-26T05:39:51.151Z,962.35
2019-04-26T05:40:51.436Z,962.40
2019-04-26T05:41:50.095Z,962.37
2019-04-26T05:42:50.079Z,962.41
2019-04-26T05:43:50.246Z,962.37
2019-04-26T05:44:50.034Z,962.40
2019-04-26T05:45:50.490Z,962.43
2019-04-26T05:46:50.700Z,962.49
2019-04-26T05:48:03.268Z,962.42
2019-04-26T05:48:50.812Z,962.45
2019-04-26T05:49:50.367Z,962.57
2019-04-26T05:50:50.884Z,962.57
2019-04-26T05:51:50.996Z,962.67
2019-04-26T05:52:51.342Z,962.63
2019-04-26T05:53:51.025Z,962.69
2019-04-26T05:54:50.894Z,962.62
2019-04-26T05:55:51.120Z,962.63
2019-04-26T05:56:49.934Z,962.63
2019-04-26T05:57:51.028Z,962.67
2019-04-26T05:58:51.149Z,962.75
2019-04-26T05:59:50.404Z,962.84
2019-04-26T06:00:51.802Z,962.80
2019-04-26T06:01:50.518Z,962.69
2019-04-26T06:02:50.016Z,962.67
2019-04-26T06:03:50.753Z,962.64
2019-04-26T06:04:49.625Z,962.69
2019-04-26T06:05:49.765Z,962.73
2019-04-26T06:06:49.592Z,962.79
2019-04-26T06:07:50.831Z,962.80
2019-04-26T06:08:49.545Z,962.81
2019-04-26T06:09:50.151Z,962.79
2019-04-26T06:10:49.532Z,962.82
2019-04-26T06:11:50.252Z,962.81
2019-04-26T06:12:51.040Z,962.78
2019-04-26T06:13:49.449Z,962.83
2019-04-26T06:14:50.481Z,962.82
2019-04-26T06:15:51.412Z,962.88
2019-04-26T06:16:49.393Z,962.90
2019-04-26T06:17:49.375Z,962.95
2019-04-26T06:18:49.358Z,962.99
2019-04-26T06:19:49.334Z,962.91
2019-04-26T06:20:49.318Z,962.94
2019-04-26T06:21:49.298Z,962.95
2019-04-26T06:22:51.999Z,963.00
2019-04-26T06:23:49.257Z,963.08
2019-04-26T06:24:49.236Z,963.10
2019-04-26T06:25:49.224Z,963.09
2019-04-26T06:26:49.198Z,963.12
2019-04-26T06:27:49.185Z,963.06
2019-04-26T06:28:49.161Z,963.12
2019-04-26T06:29:49.144Z,963.04
2019-04-26T06:30:49.122Z,963.00
2019-04-26T06:31:49.115Z,963.01
2019-04-26T06:32:56.571Z,962.96
2019-04-26T06:33:49.078Z,962.94
2019-04-26T06:34:49.041Z,962.97
2019-04-26T06:35:49.063Z,962.97
2019-04-26T06:36:49.011Z,962.96
2019-04-26T06:37:48.987Z,962.99
2019-04-26T06:38:48.971Z,962.99
2019-04-26T06:39:48.949Z,962.95
2019-04-26T06:40:48.929Z,962.96
2019-04-26T06:41:48.906Z,963.00
2019-04-26T06:42:48.890Z,963.03
2019-04-26T06:43:48.874Z,963.07
2019-04-26T06:44:48.895Z,963.09
2019-04-26T06:45:48.829Z,963.19
2019-04-26T06:46:48.810Z,963.15
2019-04-26T06:47:48.814Z,963.17
2019-04-26T06:48:48.779Z,963.16
2019-04-26T06:49:48.758Z,963.17
2019-04-26T06:50:48.737Z,963.17
2019-04-26T06:51:48.719Z,963.16
2019-04-26T06:52:48.701Z,963.18
2019-04-26T06:53:48.679Z,963.18
2019-04-26T06:54:48.660Z,963.15
2019-04-26T06:55:48.655Z,963.20
2019-04-26T06:56:48.621Z,963.21
2019-04-26T06:57:48.601Z,963.27
2019-04-26T06:58:48.581Z,963.29
2019-04-26T06:59:48.556Z,963.34
2019-04-26T07:00:48.549Z,963.44
2019-04-26T07:01:48.525Z,963.47
2019-04-26T07:02:48.504Z,963.49
2019-04-26T07:03:48.489Z,963.45
2019-04-26T07:04:48.468Z,963.42
2019-04-26T07:05:48.446Z,963.45
2019-04-26T07:06:48.424Z,963.43
2019-04-26T07:07:48.412Z,963.49
2019-04-26T07:08:57.249Z,963.49
2019-04-26T07:09:48.375Z,963.48
2019-04-26T07:10:48.387Z,963.42
2019-04-26T07:11:48.329Z,963.42
2019-04-26T07:12:48.312Z,963.41
2019-04-26T07:13:48.282Z,963.41
2019-04-26T07:14:48.262Z,963.42
2019-04-26T07:15:48.277Z,963.46
2019-04-26T07:16:48.229Z,963.54
2019-04-26T07:17:48.240Z,963.58
2019-04-26T07:18:48.190Z,963.62
2019-04-26T07:19:48.169Z,963.67
2019-04-26T07:20:48.207Z,963.62
2019-04-26T07:21:48.149Z,963.58
2019-04-26T07:22:48.102Z,963.59
2019-04-26T07:23:48.087Z,963.53
2019-04-26T07:24:48.068Z,963.56
2019-04-26T07:25:48.071Z,963.53
2019-04-26T07:26:48.025Z,963.56
2019-04-26T07:27:48.058Z,963.62
2019-04-26T07:28:47.989Z,963.63
2019-04-26T07:29:47.967Z,963.59
2019-04-26T07:30:47.953Z,963.66
2019-04-26T07:31:47.934Z,963.68
2019-04-26T07:32:47.913Z,963.71
2019-04-26T07:33:47.894Z,963.74
2019-04-26T07:34:47.881Z,963.69
2019-04-26T07:35:47.849Z,963.69
2019-04-26T07:36:47.827Z,963.64
2019-04-26T07:37:47.809Z,963.62
2019-04-26T07:38:47.796Z,963.60
2019-04-26T07:39:47.780Z,963.59
2019-04-26T07:40:47.756Z,963.60
2019-04-26T07:41:47.731Z,963.62
2019-04-26T07:42:47.722Z,963.68
2019-04-26T07:43:47.696Z,963.69
2019-04-26T07:44:47.675Z,963.70
2019-04-26T07:45:47.652Z,963.76
2019-04-26T07:46:47.633Z,963.79
2019-04-26T07:47:47.614Z,963.75
2019-04-26T07:48:47.601Z,963.76
2019-04-26T07:49:47.565Z,963.73
2019-04-26T07:50:47.551Z,963.77
2019-04-26T07:51:47.532Z,963.74
2019-04-26T07:52:47.509Z,963.80
2019-04-26T07:53:47.492Z,963.88
2019-04-26T07:54:47.472Z,963.90
2019-04-26T07:55:47.448Z,963.89
2019-04-26T07:56:47.451Z,963.85
2019-04-26T07:57:47.424Z,963.91
2019-04-26T07:58:47.395Z,963.92
2019-04-26T07:59:47.368Z,963.89
2019-04-26T08:00:47.346Z,964.00
2019-04-26T08:01:47.330Z,963.97
2019-04-26T08:02:47.309Z,963.98
2019-04-26T08:03:47.295Z,963.93
2019-04-26T08:04:47.281Z,963.95
2019-04-26T08:05:47.245Z,963.88
2019-04-26T08:06:47.228Z,963.90
2019-04-26T08:07:47.216Z,963.88
2019-04-26T08:08:47.189Z,963.89
2019-04-26T08:09:59.214Z,963.99
2019-04-26T08:10:47.150Z,963.96
2019-04-26T08:11:47.123Z,964.02
2019-04-26T08:12:47.112Z,964.10
2019-04-26T08:13:47.090Z,964.09
2019-04-26T08:14:47.065Z,964.08
2019-04-26T08:15:47.046Z,964.09
2019-04-26T08:16:47.032Z,964.08
2019-04-26T08:17:47.009Z,964.13
2019-04-26T08:18:46.990Z,964.12
2019-04-26T08:19:46.965Z,964.07
2019-04-26T08:20:48.292Z,964.09
2019-04-26T08:21:48.202Z,964.12
2019-04-26T08:22:46.911Z,964.14
2019-04-26T08:23:46.884Z,964.25
2019-04-26T08:24:46.865Z,964.18
2019-04-26T08:25:46.845Z,964.16
2019-04-26T08:26:46.827Z,964.10
2019-04-26T08:27:47.074Z,964.08
2019-04-26T08:28:46.793Z,964.08
2019-04-26T08:29:46.766Z,964.13
2019-04-26T08:30:46.747Z,964.15
2019-04-26T08:31:46.724Z,964.17
2019-04-26T08:32:46.814Z,964.16
2019-04-26T08:33:48.791Z,964.20
2019-04-26T08:34:46.665Z,964.22
2019-04-26T08:35:48.948Z,964.22
2019-04-26T08:36:46.625Z,964.19
2019-04-26T08:37:46.602Z,964.31
2019-04-26T08:38:48.838Z,964.32
2019-04-26T08:39:51.692Z,964.36
2019-04-26T08:40:46.551Z,964.36
2019-04-26T08:41:46.527Z,964.37
2019-04-26T08:42:46.515Z,964.38
2019-04-26T08:43:46.483Z,964.32
2019-04-26T08:44:46.469Z,964.35
2019-04-26T08:46:01.747Z,964.29
2019-04-26T08:46:46.441Z,964.35
2019-04-26T08:47:50.048Z,964.32
2019-04-26T08:48:46.389Z,964.35
2019-04-26T08:49:47.270Z,964.45
2019-04-26T08:50:47.053Z,964.37
2019-04-26T08:51:46.320Z,964.32
2019-04-26T08:52:46.333Z,964.26
2019-04-26T08:53:46.275Z,964.27
2019-04-26T08:54:46.260Z,964.25
2019-04-26T08:55:46.234Z,964.17
2019-04-26T08:56:46.214Z,964.14
2019-04-26T08:57:46.210Z,964.12
2019-04-26T08:58:46.182Z,964.16
2019-04-26T08:59:46.155Z,964.19
2019-04-26T09:00:46.133Z,964.24
2019-04-26T09:01:46.613Z,964.28
2019-04-26T09:02:46.092Z,964.36
2019-04-26T09:03:46.065Z,964.38
2019-04-26T09:04:46.053Z,964.26
2019-04-26T09:05:49.809Z,964.40
2019-04-26T09:06:46.009Z,964.31
2019-04-26T09:07:45.986Z,964.29
2019-04-26T09:08:45.970Z,964.31
2019-04-26T09:09:56.737Z,964.40
2019-04-26T09:10:45.924Z,964.38
2019-04-26T09:11:45.904Z,964.31
2019-04-26T09:12:45.885Z,964.38
2019-04-26T09:13:45.864Z,964.32
2019-04-26T09:14:45.843Z,964.26
2019-04-26T09:15:45.825Z,964.39
2019-04-26T09:16:50.513Z,964.45
2019-04-26T09:17:45.796Z,964.40
2019-04-26T09:18:52.942Z,964.42
2019-04-26T09:19:45.735Z,964.42
2019-04-26T09:20:45.723Z,964.44
2019-04-26T09:21:47.420Z,964.47
2019-04-26T09:22:45.684Z,964.52
2019-04-26T09:23:50.819Z,964.51
2019-04-26T09:24:45.638Z,964.53
2019-04-26T09:25:45.616Z,964.51
2019-04-26T09:26:46.620Z,964.62
2019-04-26T09:27:45.573Z,964.66
2019-04-26T09:28:45.546Z,964.61
2019-04-26T09:29:45.529Z,964.70
2019-04-26T09:30:47.696Z,964.64
2019-04-26T09:31:45.489Z,964.53
2019-04-26T09:32:45.469Z,964.56
2019-04-26T09:33:45.452Z,964.50
2019-04-26T09:34:45.425Z,964.57
2019-04-26T09:35:45.403Z,964.54
2019-04-26T09:36:45.388Z,964.59
2019-04-26T09:37:45.371Z,964.53
2019-04-26T09:38:45.340Z,964.27
2019-04-26T09:39:45.322Z,964.50
2019-04-26T09:40:45.301Z,964.55
2019-04-26T09:41:45.324Z,964.47
2019-04-26T09:42:45.256Z,964.28
2019-04-26T09:43:45.237Z,964.48
2019-04-26T09:44:45.217Z,964.52
2019-04-26T09:45:47.931Z,964.58
2019-04-26T09:46:48.514Z,964.49
2019-04-26T09:47:45.154Z,964.52
2019-04-26T09:48:45.133Z,964.49
2019-04-26T09:49:45.108Z,964.45
2019-04-26T09:50:45.088Z,964.46
2019-04-26T09:51:45.072Z,964.42
2019-04-26T09:52:45.049Z,964.45
2019-04-26T09:53:45.029Z,964.47
2019-04-26T09:54:45.009Z,964.43
2019-04-26T09:55:44.987Z,964.42
2019-04-26T09:56:44.974Z,964.60
2019-04-26T09:57:44.947Z,964.62
2019-04-26T09:58:44.925Z,964.64
2019-04-26T09:59:44.909Z,964.55
2019-04-26T10:00:48.501Z,964.61
2019-04-26T10:01:44.860Z,964.61
2019-04-26T10:02:44.842Z,964.62
2019-04-26T10:03:44.821Z,964.64
2019-04-26T10:04:44.799Z,964.65
2019-04-26T10:05:44.784Z,964.67
2019-04-26T10:06:44.766Z,964.66
2019-04-26T10:07:44.757Z,964.74
2019-04-26T10:08:47.066Z,964.74
2019-04-26T10:09:44.699Z,964.72
2019-04-26T10:10:44.716Z,964.78
2019-04-26T10:11:44.659Z,964.80
2019-04-26T10:12:44.641Z,964.80
2019-04-26T10:13:44.621Z,964.75
2019-04-26T10:14:46.484Z,964.77
2019-04-26T10:15:44.582Z,964.72
2019-04-26T10:16:44.565Z,964.73
2019-04-26T10:17:46.443Z,964.74
2019-04-26T10:18:44.519Z,964.77
2019-04-26T10:19:44.547Z,964.77
2019-04-26T10:20:44.479Z,964.83
2019-04-26T10:21:44.460Z,964.84
2019-04-26T10:22:44.439Z,964.82
2019-04-26T10:23:44.419Z,964.81
2019-04-26T10:24:44.409Z,964.80
2019-04-26T10:25:47.323Z,964.80
2019-04-26T10:26:44.357Z,964.83
2019-04-26T10:27:44.337Z,964.78
2019-04-26T10:28:46.703Z,964.75
2019-04-26T10:29:44.295Z,964.75
2019-04-26T10:30:44.273Z,964.75
2019-04-26T10:31:47.632Z,964.76
2019-04-26T10:32:44.255Z,964.75
2019-04-26T10:33:44.208Z,964.81
2019-04-26T10:34:47.498Z,964.76
2019-04-26T10:35:44.171Z,964.77
2019-04-26T10:36:44.151Z,964.75
2019-04-26T10:37:47.971Z,964.73
2019-04-26T10:38:44.118Z,964.68
2019-04-26T10:39:44.088Z,964.69
2019-04-26T10:40:44.081Z,964.72
2019-04-26T10:41:44.046Z,964.70
2019-04-26T10:42:44.031Z,964.66
2019-04-26T10:43:44.059Z,964.66
2019-04-26T10:44:43.988Z,964.69
2019-04-26T10:45:45.897Z,964.64
2019-04-26T10:46:55.070Z,964.70
2019-04-26T10:47:43.920Z,964.57
2019-04-26T10:48:45.496Z,964.62
2019-04-26T10:49:43.884Z,964.64
2019-04-26T10:50:43.859Z,964.66
2019-04-26T10:51:43.842Z,964.60
2019-04-26T10:52:49.449Z,964.64
2019-04-26T10:53:43.799Z,964.53
2019-04-26T10:54:46.011Z,964.60
2019-04-26T10:55:46.543Z,964.52
2019-04-26T10:56:43.738Z,964.48
2019-04-26T10:57:43.718Z,964.47
2019-04-26T10:58:43.726Z,964.43
2019-04-26T10:59:44.073Z,964.44
2019-04-26T11:00:43.657Z,964.54
2019-04-26T11:01:43.634Z,964.51
2019-04-26T11:02:43.610Z,964.58
2019-04-26T11:03:43.595Z,964.60
2019-04-26T11:04:43.568Z,964.65
2019-04-26T11:05:43.551Z,964.64
2019-04-26T11:06:43.532Z,964.58
2019-04-26T11:07:43.509Z,964.63
2019-04-26T11:08:43.491Z,964.66
2019-04-26T11:09:43.466Z,964.60
2019-04-26T11:10:48.933Z,964.62
2019-04-26T11:11:43.425Z,964.65
2019-04-26T11:12:44.756Z,964.66
2019-04-26T11:13:43.392Z,964.59
2019-04-26T11:14:43.367Z,964.52
2019-04-26T11:15:43.339Z,964.65
2019-04-26T11:16:43.313Z,964.59
2019-04-26T11:17:46.051Z,964.75
2019-04-26T11:18:43.274Z,964.81
2019-04-26T11:19:44.239Z,964.85
2019-04-26T11:20:45.630Z,964.86
2019-04-26T11:21:43.212Z,964.90
2019-04-26T11:22:43.184Z,964.91
2019-04-26T11:23:45.458Z,964.93
2019-04-26T11:24:43.142Z,964.99
2019-04-26T11:25:43.118Z,965.12
2019-04-26T11:26:43.118Z,965.07
2019-04-26T11:27:44.291Z,965.09
2019-04-26T11:28:43.057Z,965.12
2019-04-26T11:29:53.266Z,965.11
2019-04-26T11:30:43.008Z,965.15
2019-04-26T11:31:43.012Z,965.15
2019-04-26T11:32:42.969Z,965.21
2019-04-26T11:33:44.857Z,965.17
2019-04-26T11:34:43.074Z,965.13
2019-04-26T11:35:42.897Z,965.13
2019-04-26T11:36:43.082Z,965.11
2019-04-26T11:37:42.859Z,965.01
2019-04-26T11:38:42.855Z,964.97
2019-04-26T11:39:42.827Z,964.97
2019-04-26T11:40:44.302Z,964.91
2019-04-26T11:41:42.771Z,964.84
2019-04-26T11:42:45.755Z,964.89
2019-04-26T11:43:42.741Z,964.97
2019-04-26T11:44:44.444Z,965.04
2019-04-26T11:45:45.430Z,965.13
2019-04-26T11:46:45.045Z,965.15
2019-04-26T11:47:54.264Z,965.11
2019-04-26T11:48:42.613Z,965.23
2019-04-26T11:49:43.023Z,965.29
2019-04-26T11:50:42.566Z,965.25
2019-04-26T11:51:42.544Z,965.27
2019-04-26T11:52:42.523Z,965.21
2019-04-26T11:53:44.713Z,965.23
2019-04-26T11:54:42.476Z,965.32
2019-04-26T11:55:42.455Z,965.31
2019-04-26T11:56:42.431Z,965.32
2019-04-26T11:57:43.722Z,965.32
2019-04-26T11:58:42.390Z,965.26
2019-04-26T11:59:42.373Z,965.39
2019-04-26T12:00:42.343Z,965.39
2019-04-26T12:01:42.325Z,965.42
2019-04-26T12:02:42.306Z,965.46
2019-04-26T12:03:42.278Z,965.45
2019-04-26T12:04:42.255Z,965.47
2019-04-26T12:05:42.233Z,965.50
2019-04-26T12:06:42.208Z,965.50
2019-04-26T12:07:42.181Z,965.47
2019-04-26T12:08:42.169Z,965.47
2019-04-26T12:09:42.143Z,965.50
2019-04-26T12:10:44.466Z,965.52
2019-04-26T12:11:49.413Z,965.50
2019-04-26T12:12:43.176Z,965.54
2019-04-26T12:13:42.053Z,965.53
2019-04-26T12:14:42.036Z,965.51
2019-04-26T12:15:43.881Z,965.61
2019-04-26T12:16:49.452Z,965.57
2019-04-26T12:17:41.962Z,965.62
2019-04-26T12:18:44.146Z,965.60
2019-04-26T12:19:41.917Z,965.56
2019-04-26T12:20:41.892Z,965.54
2019-04-26T12:21:41.872Z,965.49
2019-04-26T12:22:43.321Z,965.46
2019-04-26T12:23:41.826Z,965.48
2019-04-26T12:24:41.805Z,965.53
2019-04-26T12:25:43.634Z,965.47
2019-04-26T12:26:43.007Z,965.53
2019-04-26T12:27:41.766Z,965.56
2019-04-26T12:28:41.730Z,965.56
2019-04-26T12:29:44.178Z,965.55
2019-04-26T12:30:41.670Z,965.50
2019-04-26T12:31:41.648Z,965.50
2019-04-26T12:32:41.626Z,965.54
2019-04-26T12:33:43.731Z,965.48
2019-04-26T12:34:41.581Z,965.51
2019-04-26T12:35:41.556Z,965.52
2019-04-26T12:36:41.535Z,965.56